Hovedside
METAR-TAF:

METAR-TAF

Lufthavner :

Mae Sot, Thailand

breddegrad: 16-40N, lengdegrad: 098-33E, høyde over havet: 196 m

Gjeldene værobservasjon

Denne rapporten ble laget for 1 time og 15 minutter siden, klokken 11:00 UTC
Vind 7 kt fra Vest-sørvest
Temperatur 27°C
Luftfuktighet 89%
Trykk 1005 hPa
Sikt 10 km eller mer
Spredte skyer i en høyde av 3300 ft
Brutte skyer i en høyde av 4300 ft

METAR: VTPM 201100Z 24007KT 9999 SCT033 BKN043 27/25 Q1005 NOSIG

Tid: 19:15 (12:15 UTC)

Varsel

Denne rapporten ble laget for 1 time og 15 minutter siden, klokken 11:00 UTC
Varsel gyldig fra 20. klokken 12 UTC til 21. klokken 12 UTC
Vind 5 kt fra Sørvest
Sikt 10 km eller mer
Spredte skyer i en høyde av 2500 ft

TAF: VTPM 201100Z 2012/2112 23005KT 9999 SCT025

Værobservasjoner og værvarsel for over 4000 flyplasser (METAR- og TAF-rapporter).

Tilgjengelige stasjoner er representert av de røde og gule prikkene på kartet.

Hold musepekeren over prikken for å se navnet på stasjonen.

Klikk så for å se værobservasjoner og -varsler.

For å forandre kartet kan du klikke på den grønne knappen med svart kryss for å zoome inn, på den grønne knappen med strek for å zoome ut, eller på de grønne pilene for å se tilstøtende kart.


METAR-TAF: